sensor_id;sensor_type;location;lat;lon;timestamp;temperature;humidity
8882;DHT22;4477;48.736;9.176;2023-01-29T00:01:46;-1.40;99.90
8882;DHT22;4477;48.736;9.176;2023-01-29T00:04:13;-1.40;99.90
8882;DHT22;4477;48.736;9.176;2023-01-29T00:06:40;-1.40;99.90
8882;DHT22;4477;48.736;9.176;2023-01-29T00:09:06;-1.50;99.90
8882;DHT22;4477;48.736;9.176;2023-01-29T00:11:34;-1.50;99.90
8882;DHT22;4477;48.736;9.176;2023-01-29T00:14:00;-1.60;99.90
8882;DHT22;4477;48.736;9.176;2023-01-29T00:16:27;-1.50;99.90
8882;DHT22;4477;48.736;9.176;2023-01-29T00:18:55;-1.50;99.90
8882;DHT22;4477;48.736;9.176;2023-01-29T00:21:23;-1.40;99.90
8882;DHT22;4477;48.736;9.176;2023-01-29T00:23:50;-1.40;99.90
8882;DHT22;4477;48.736;9.176;2023-01-29T00:26:17;-1.50;99.90
8882;DHT22;4477;48.736;9.176;2023-01-29T00:28:44;-1.50;99.90
8882;DHT22;4477;48.736;9.176;2023-01-29T00:31:12;-1.50;99.90
8882;DHT22;4477;48.736;9.176;2023-01-29T00:33:40;-1.40;99.90
8882;DHT22;4477;48.736;9.176;2023-01-29T00:36:10;-1.50;99.90
8882;DHT22;4477;48.736;9.176;2023-01-29T00:38:38;-1.50;99.90
8882;DHT22;4477;48.736;9.176;2023-01-29T00:41:06;-1.40;99.90
8882;DHT22;4477;48.736;9.176;2023-01-29T00:43:46;-1.40;99.90
8882;DHT22;4477;48.736;9.176;2023-01-29T00:46:30;-1.40;99.90
8882;DHT22;4477;48.736;9.176;2023-01-29T00:48:57;-1.40;99.90
8882;DHT22;4477;48.736;9.176;2023-01-29T00:51:25;-1.40;99.90
8882;DHT22;4477;48.736;9.176;2023-01-29T00:53:52;-1.50;99.90
8882;DHT22;4477;48.736;9.176;2023-01-29T00:56:22;-1.50;99.90
8882;DHT22;4477;48.736;9.176;2023-01-29T00:58:49;-1.50;99.90
8882;DHT22;4477;48.736;9.176;2023-01-29T01:01:17;-1.50;99.90
8882;DHT22;4477;48.736;9.176;2023-01-29T01:04:04;-1.40;99.90
8882;DHT22;4477;48.736;9.176;2023-01-29T01:06:31;-1.40;99.90
8882;DHT22;4477;48.736;9.176;2023-01-29T01:08:58;-1.40;99.90
8882;DHT22;4477;48.736;9.176;2023-01-29T01:11:43;-1.50;99.90
8882;DHT22;4477;48.736;9.176;2023-01-29T01:14:09;-1.40;99.90
8882;DHT22;4477;48.736;9.176;2023-01-29T01:16:36;-1.40;99.90
8882;DHT22;4477;48.736;9.176;2023-01-29T01:19:04;-1.40;99.90
8882;DHT22;4477;48.736;9.176;2023-01-29T01:21:32;-1.40;99.90
8882;DHT22;4477;48.736;9.176;2023-01-29T01:23:59;-1.40;99.90
8882;DHT22;4477;48.736;9.176;2023-01-29T01:26:26;-1.40;99.90
8882;DHT22;4477;48.736;9.176;2023-01-29T01:28:53;-1.40;99.90
8882;DHT22;4477;48.736;9.176;2023-01-29T01:31:20;-1.40;99.90
8882;DHT22;4477;48.736;9.176;2023-01-29T01:33:46;-1.50;99.90
8882;DHT22;4477;48.736;9.176;2023-01-29T01:36:16;-1.50;99.90
8882;DHT22;4477;48.736;9.176;2023-01-29T01:38:44;-1.50;99.90
8882;DHT22;4477;48.736;9.176;2023-01-29T01:41:11;-1.50;99.90
8882;DHT22;4477;48.736;9.176;2023-01-29T01:43:52;-1.50;99.90
8882;DHT22;4477;48.736;9.176;2023-01-29T01:46:20;-1.50;99.90
8882;DHT22;4477;48.736;9.176;2023-01-29T01:48:51;-1.50;99.90
8882;DHT22;4477;48.736;9.176;2023-01-29T01:51:19;-1.50;99.90
8882;DHT22;4477;48.736;9.176;2023-01-29T01:53:52;-1.50;99.90
8882;DHT22;4477;48.736;9.176;2023-01-29T01:56:24;-1.60;99.90
8882;DHT22;4477;48.736;9.176;2023-01-29T01:58:54;-1.50;99.90
8882;DHT22;4477;48.736;9.176;2023-01-29T02:01:23;-1.50;99.90
8882;DHT22;4477;48.736;9.176;2023-01-29T02:03:56;-1.60;99.90
8882;DHT22;4477;48.736;9.176;2023-01-29T02:06:42;-1.60;99.90
8882;DHT22;4477;48.736;9.176;2023-01-29T02:09:33;-1.60;99.90
8882;DHT22;4477;48.736;9.176;2023-01-29T02:12:02;-1.60;99.90
8882;DHT22;4477;48.736;9.176;2023-01-29T02:14:29;-1.60;99.90
8882;DHT22;4477;48.736;9.176;2023-01-29T02:16:56;-1.60;99.90
8882;DHT22;4477;48.736;9.176;2023-01-29T02:19:32;-1.60;99.90
8882;DHT22;4477;48.736;9.176;2023-01-29T02:22:16;-1.70;99.90
8882;DHT22;4477;48.736;9.176;2023-01-29T02:28:12;-1.70;99.90
8882;DHT22;4477;48.736;9.176;2023-01-29T02:30:43;-1.70;99.90
8882;DHT22;4477;48.736;9.176;2023-01-29T02:33:18;-1.70;99.90
8882;DHT22;4477;48.736;9.176;2023-01-29T02:35:53;-1.70;99.90
8882;DHT22;4477;48.736;9.176;2023-01-29T02:38:27;-1.70;99.90
8882;DHT22;4477;48.736;9.176;2023-01-29T02:41:00;-1.70;99.90
8882;DHT22;4477;48.736;9.176;2023-01-29T02:43:33;-1.70;99.90
8882;DHT22;4477;48.736;9.176;2023-01-29T02:46:11;-1.70;99.90
8882;DHT22;4477;48.736;9.176;2023-01-29T02:48:44;-1.70;99.90
8882;DHT22;4477;48.736;9.176;2023-01-29T02:51:17;-1.70;99.90
8882;DHT22;4477;48.736;9.176;2023-01-29T02:53:52;-1.80;99.90
8882;DHT22;4477;48.736;9.176;2023-01-29T02:56:23;-1.80;99.90
8882;DHT22;4477;48.736;9.176;2023-01-29T02:58:59;-1.80;99.90
8882;DHT22;4477;48.736;9.176;2023-01-29T03:01:29;-1.80;99.90
8882;DHT22;4477;48.736;9.176;2023-01-29T03:04:02;-1.80;99.90
8882;DHT22;4477;48.736;9.176;2023-01-29T03:06:32;-1.80;99.90
8882;DHT22;4477;48.736;9.176;2023-01-29T03:09:04;-1.90;99.90
8882;DHT22;4477;48.736;9.176;2023-01-29T03:11:35;-1.90;99.90
8882;DHT22;4477;48.736;9.176;2023-01-29T03:14:07;-1.80;99.90
8882;DHT22;4477;48.736;9.176;2023-01-29T03:16:40;-1.90;99.90
8882;DHT22;4477;48.736;9.176;2023-01-29T03:19:13;-1.90;99.90
8882;DHT22;4477;48.736;9.176;2023-01-29T03:21:43;-1.90;99.90
8882;DHT22;4477;48.736;9.176;2023-01-29T03:24:24;-1.90;99.90
8882;DHT22;4477;48.736;9.176;2023-01-29T03:27:11;-1.90;99.90
8882;DHT22;4477;48.736;9.176;2023-01-29T03:29:58;-1.90;99.90
8882;DHT22;4477;48.736;9.176;2023-01-29T03:32:45;-1.90;99.90
8882;DHT22;4477;48.736;9.176;2023-01-29T03:35:17;-1.90;99.90
8882;DHT22;4477;48.736;9.176;2023-01-29T03:37:58;-1.90;99.90
8882;DHT22;4477;48.736;9.176;2023-01-29T03:40:27;-1.90;99.90
8882;DHT22;4477;48.736;9.176;2023-01-29T03:43:03;-1.90;99.90
8882;DHT22;4477;48.736;9.176;2023-01-29T03:45:38;-1.90;99.90
8882;DHT22;4477;48.736;9.176;2023-01-29T03:48:11;-1.90;99.90
8882;DHT22;4477;48.736;9.176;2023-01-29T03:50:50;-1.80;99.90
8882;DHT22;4477;48.736;9.176;2023-01-29T03:53:23;-1.80;99.90
8882;DHT22;4477;48.736;9.176;2023-01-29T03:55:57;-1.90;99.90
8882;DHT22;4477;48.736;9.176;2023-01-29T03:58:33;-1.90;99.90
8882;DHT22;4477;48.736;9.176;2023-01-29T04:01:05;-1.90;99.90
8882;DHT22;4477;48.736;9.176;2023-01-29T04:03:37;-1.90;99.90
8882;DHT22;4477;48.736;9.176;2023-01-29T04:06:10;-2.00;99.90
8882;DHT22;4477;48.736;9.176;2023-01-29T04:08:41;-1.90;99.90
8882;DHT22;4477;48.736;9.176;2023-01-29T04:11:13;-1.90;99.90
8882;DHT22;4477;48.736;9.176;2023-01-29T04:13:42;-2.00;99.90
8882;DHT22;4477;48.736;9.176;2023-01-29T04:16:14;-1.90;99.90
8882;DHT22;4477;48.736;9.176;2023-01-29T04:18:44;-2.00;99.90
8882;DHT22;4477;48.736;9.176;2023-01-29T04:21:12;-2.00;99.90
8882;DHT22;4477;48.736;9.176;2023-01-29T04:23:39;-2.00;99.90
8882;DHT22;4477;48.736;9.176;2023-01-29T04:26:28;-2.00;99.90
8882;DHT22;4477;48.736;9.176;2023-01-29T04:29:09;-1.90;99.90
8882;DHT22;4477;48.736;9.176;2023-01-29T04:31:46;-2.00;99.90
8882;DHT22;4477;48.736;9.176;2023-01-29T04:34:22;-2.00;99.90
8882;DHT22;4477;48.736;9.176;2023-01-29T04:37:01;-2.00;99.90
8882;DHT22;4477;48.736;9.176;2023-01-29T04:39:37;-2.00;99.90
8882;DHT22;4477;48.736;9.176;2023-01-29T04:42:11;-2.00;99.90
8882;DHT22;4477;48.736;9.176;2023-01-29T04:44:42;-2.10;99.90
8882;DHT22;4477;48.736;9.176;2023-01-29T04:47:19;-2.00;99.90
8882;DHT22;4477;48.736;9.176;2023-01-29T04:49:52;-2.00;99.90
8882;DHT22;4477;48.736;9.176;2023-01-29T04:52:32;-2.00;99.90
8882;DHT22;4477;48.736;9.176;2023-01-29T04:55:06;-2.00;99.90
8882;DHT22;4477;48.736;9.176;2023-01-29T04:57:41;-2.00;99.90
8882;DHT22;4477;48.736;9.176;2023-01-29T05:00:15;-2.00;99.90
8882;DHT22;4477;48.736;9.176;2023-01-29T05:02:46;-2.00;99.90
8882;DHT22;4477;48.736;9.176;2023-01-29T05:05:16;-2.00;99.90
8882;DHT22;4477;48.736;9.176;2023-01-29T05:07:45;-2.00;99.90
8882;DHT22;4477;48.736;9.176;2023-01-29T05:10:15;-2.00;99.90
8882;DHT22;4477;48.736;9.176;2023-01-29T05:12:46;-2.10;99.90
8882;DHT22;4477;48.736;9.176;2023-01-29T05:15:19;-2.10;99.90
8882;DHT22;4477;48.736;9.176;2023-01-29T05:17:48;-2.10;99.90
8882;DHT22;4477;48.736;9.176;2023-01-29T05:20:18;-2.10;99.90
8882;DHT22;4477;48.736;9.176;2023-01-29T05:22:46;-2.10;99.90
8882;DHT22;4477;48.736;9.176;2023-01-29T05:25:21;-2.10;99.90
8882;DHT22;4477;48.736;9.176;2023-01-29T05:27:49;-2.00;99.90
8882;DHT22;4477;48.736;9.176;2023-01-29T05:30:34;-2.00;99.90
8882;DHT22;4477;48.736;9.176;2023-01-29T05:33:04;-2.10;99.90
8882;DHT22;4477;48.736;9.176;2023-01-29T05:35:31;-2.10;99.90
8882;DHT22;4477;48.736;9.176;2023-01-29T05:37:58;-2.10;99.90
8882;DHT22;4477;48.736;9.176;2023-01-29T05:40:25;-2.10;99.90
8882;DHT22;4477;48.736;9.176;2023-01-29T05:42:52;-2.10;99.90
8882;DHT22;4477;48.736;9.176;2023-01-29T05:45:19;-2.00;99.90
8882;DHT22;4477;48.736;9.176;2023-01-29T05:47:46;-2.00;99.90
8882;DHT22;4477;48.736;9.176;2023-01-29T05:50:15;-2.00;99.90
8882;DHT22;4477;48.736;9.176;2023-01-29T05:52:42;-2.10;99.90
8882;DHT22;4477;48.736;9.176;2023-01-29T05:55:09;-2.10;99.90
8882;DHT22;4477;48.736;9.176;2023-01-29T05:57:36;-2.10;99.90
8882;DHT22;4477;48.736;9.176;2023-01-29T06:00:04;-2.20;99.90
8882;DHT22;4477;48.736;9.176;2023-01-29T06:02:31;-2.20;99.90
8882;DHT22;4477;48.736;9.176;2023-01-29T06:04:57;-2.20;99.90
8882;DHT22;4477;48.736;9.176;2023-01-29T06:07:26;-2.20;99.90
8882;DHT22;4477;48.736;9.176;2023-01-29T06:09:52;-2.30;99.90
8882;DHT22;4477;48.736;9.176;2023-01-29T06:12:19;-2.30;99.90
8882;DHT22;4477;48.736;9.176;2023-01-29T06:14:46;-2.30;99.90
8882;DHT22;4477;48.736;9.176;2023-01-29T06:17:13;-2.30;99.90
8882;DHT22;4477;48.736;9.176;2023-01-29T06:19:39;-2.20;99.90
8882;DHT22;4477;48.736;9.176;2023-01-29T06:22:06;-2.20;99.90
8882;DHT22;4477;48.736;9.176;2023-01-29T06:24:34;-2.20;99.90
8882;DHT22;4477;48.736;9.176;2023-01-29T06:27:01;-2.30;99.90
8882;DHT22;4477;48.736;9.176;2023-01-29T06:29:28;-2.20;99.90
8882;DHT22;4477;48.736;9.176;2023-01-29T06:31:55;-2.10;99.90
8882;DHT22;4477;48.736;9.176;2023-01-29T06:34:21;-2.10;99.90
8882;DHT22;4477;48.736;9.176;2023-01-29T06:36:48;-2.10;99.90
8882;DHT22;4477;48.736;9.176;2023-01-29T06:39:15;-2.10;99.90
8882;DHT22;4477;48.736;9.176;2023-01-29T06:41:43;-2.10;99.90
8882;DHT22;4477;48.736;9.176;2023-01-29T06:44:11;-2.10;99.90
8882;DHT22;4477;48.736;9.176;2023-01-29T06:46:37;-2.10;99.90
8882;DHT22;4477;48.736;9.176;2023-01-29T06:49:04;-2.10;99.90
8882;DHT22;4477;48.736;9.176;2023-01-29T06:51:31;-2.10;99.90
8882;DHT22;4477;48.736;9.176;2023-01-29T06:53:58;-2.10;99.90
8882;DHT22;4477;48.736;9.176;2023-01-29T06:56:25;-2.10;99.90
8882;DHT22;4477;48.736;9.176;2023-01-29T06:58:53;-2.10;99.90
8882;DHT22;4477;48.736;9.176;2023-01-29T07:01:20;-2.10;99.90
8882;DHT22;4477;48.736;9.176;2023-01-29T07:03:48;-2.10;99.90
8882;DHT22;4477;48.736;9.176;2023-01-29T07:06:15;-2.10;99.90
8882;DHT22;4477;48.736;9.176;2023-01-29T07:08:42;-2.20;99.90
8882;DHT22;4477;48.736;9.176;2023-01-29T07:11:08;-2.20;99.90
8882;DHT22;4477;48.736;9.176;2023-01-29T07:13:35;-2.10;99.90
8882;DHT22;4477;48.736;9.176;2023-01-29T07:16:04;-2.10;99.90
8882;DHT22;4477;48.736;9.176;2023-01-29T07:18:31;-2.10;99.90
8882;DHT22;4477;48.736;9.176;2023-01-29T07:20:58;-2.00;99.90
8882;DHT22;4477;48.736;9.176;2023-01-29T07:23:29;-2.00;99.90
8882;DHT22;4477;48.736;9.176;2023-01-29T07:25:56;-2.00;99.90
8882;DHT22;4477;48.736;9.176;2023-01-29T07:28:25;-2.00;99.90
8882;DHT22;4477;48.736;9.176;2023-01-29T07:30:55;-1.90;99.90
8882;DHT22;4477;48.736;9.176;2023-01-29T07:33:23;-1.90;99.90
8882;DHT22;4477;48.736;9.176;2023-01-29T07:35:50;-1.80;99.90
8882;DHT22;4477;48.736;9.176;2023-01-29T07:38:17;-1.80;99.90
8882;DHT22;4477;48.736;9.176;2023-01-29T07:40:44;-1.80;99.90
8882;DHT22;4477;48.736;9.176;2023-01-29T07:43:11;-1.70;99.90
8882;DHT22;4477;48.736;9.176;2023-01-29T07:45:39;-1.70;99.90
8882;DHT22;4477;48.736;9.176;2023-01-29T07:48:08;-1.60;99.90
8882;DHT22;4477;48.736;9.176;2023-01-29T07:50:37;-1.50;99.90
8882;DHT22;4477;48.736;9.176;2023-01-29T07:53:03;-1.40;99.90
8882;DHT22;4477;48.736;9.176;2023-01-29T07:55:31;-1.30;99.90
8882;DHT22;4477;48.736;9.176;2023-01-29T07:58:00;-1.30;99.90
8882;DHT22;4477;48.736;9.176;2023-01-29T08:00:27;-1.20;99.90
8882;DHT22;4477;48.736;9.176;2023-01-29T08:03:00;-1.30;99.90
8882;DHT22;4477;48.736;9.176;2023-01-29T08:05:27;-1.30;99.90
8882;DHT22;4477;48.736;9.176;2023-01-29T08:07:56;-1.20;99.90
8882;DHT22;4477;48.736;9.176;2023-01-29T08:10:23;-1.20;99.90
8882;DHT22;4477;48.736;9.176;2023-01-29T08:12:53;-1.20;99.90
8882;DHT22;4477;48.736;9.176;2023-01-29T08:15:20;-1.20;99.90
8882;DHT22;4477;48.736;9.176;2023-01-29T08:17:47;-1.10;99.90
8882;DHT22;4477;48.736;9.176;2023-01-29T08:20:14;-1.00;99.90
8882;DHT22;4477;48.736;9.176;2023-01-29T08:22:41;-1.00;99.90
8882;DHT22;4477;48.736;9.176;2023-01-29T08:25:10;-0.90;99.90
8882;DHT22;4477;48.736;9.176;2023-01-29T08:27:37;-0.90;99.90
8882;DHT22;4477;48.736;9.176;2023-01-29T08:30:04;-0.90;99.90
8882;DHT22;4477;48.736;9.176;2023-01-29T08:32:32;-0.90;99.90
8882;DHT22;4477;48.736;9.176;2023-01-29T08:34:59;-0.80;99.90
8882;DHT22;4477;48.736;9.176;2023-01-29T08:37:25;-0.80;99.90
8882;DHT22;4477;48.736;9.176;2023-01-29T08:39:52;-0.80;99.90
8882;DHT22;4477;48.736;9.176;2023-01-29T08:42:21;-0.80;99.90
8882;DHT22;4477;48.736;9.176;2023-01-29T08:44:47;-0.70;99.90
8882;DHT22;4477;48.736;9.176;2023-01-29T08:47:14;-0.80;99.90
8882;DHT22;4477;48.736;9.176;2023-01-29T08:49:41;-0.80;99.90
8882;DHT22;4477;48.736;9.176;2023-01-29T08:52:08;-0.70;99.90
8882;DHT22;4477;48.736;9.176;2023-01-29T08:54:35;-0.70;99.90
8882;DHT22;4477;48.736;9.176;2023-01-29T08:57:01;-0.60;99.90
8882;DHT22;4477;48.736;9.176;2023-01-29T08:59:29;-0.60;99.90
8882;DHT22;4477;48.736;9.176;2023-01-29T09:01:56;-0.60;99.90
8882;DHT22;4477;48.736;9.176;2023-01-29T09:04:23;-0.50;99.90
8882;DHT22;4477;48.736;9.176;2023-01-29T09:07:03;-0.40;99.60
8882;DHT22;4477;48.736;9.176;2023-01-29T09:09:30;-0.40;99.90
8882;DHT22;4477;48.736;9.176;2023-01-29T09:11:57;-0.40;99.90
8882;DHT22;4477;48.736;9.176;2023-01-29T09:14:24;-0.20;99.90
8882;DHT22;4477;48.736;9.176;2023-01-29T09:16:53;-0.10;99.80
8882;DHT22;4477;48.736;9.176;2023-01-29T09:19:20;0.00;98.20
8882;DHT22;4477;48.736;9.176;2023-01-29T09:21:47;0.00;96.60
8882;DHT22;4477;48.736;9.176;2023-01-29T09:24:14;-0.10;97.30
8882;DHT22;4477;48.736;9.176;2023-01-29T09:26:41;0.10;97.30
8882;DHT22;4477;48.736;9.176;2023-01-29T09:29:09;0.20;96.40
8882;DHT22;4477;48.736;9.176;2023-01-29T09:31:36;0.30;96.10
8882;DHT22;4477;48.736;9.176;2023-01-29T09:34:04;0.40;96.10
8882;DHT22;4477;48.736;9.176;2023-01-29T09:36:31;0.40;96.20
8882;DHT22;4477;48.736;9.176;2023-01-29T09:38:57;0.50;96.20
8882;DHT22;4477;48.736;9.176;2023-01-29T09:41:36;0.60;96.00
8882;DHT22;4477;48.736;9.176;2023-01-29T09:44:11;0.60;95.50
8882;DHT22;4477;48.736;9.176;2023-01-29T09:46:41;0.60;95.60
8882;DHT22;4477;48.736;9.176;2023-01-29T09:49:15;0.70;94.80
8882;DHT22;4477;48.736;9.176;2023-01-29T09:51:49;0.60;94.70
8882;DHT22;4477;48.736;9.176;2023-01-29T09:54:20;0.60;94.90
8882;DHT22;4477;48.736;9.176;2023-01-29T09:56:51;0.60;94.30
8882;DHT22;4477;48.736;9.176;2023-01-29T09:59:20;0.70;94.10
8882;DHT22;4477;48.736;9.176;2023-01-29T10:01:54;0.60;94.20
8882;DHT22;4477;48.736;9.176;2023-01-29T10:04:56;0.70;94.00
8882;DHT22;4477;48.736;9.176;2023-01-29T10:10:32;0.90;93.00
8882;DHT22;4477;48.736;9.176;2023-01-29T10:13:12;1.30;92.90
8882;DHT22;4477;48.736;9.176;2023-01-29T10:15:50;1.80;92.90
8882;DHT22;4477;48.736;9.176;2023-01-29T10:18:51;2.10;91.20
8882;DHT22;4477;48.736;9.176;2023-01-29T10:21:39;2.10;90.00
8882;DHT22;4477;48.736;9.176;2023-01-29T10:24:17;2.20;90.30
8882;DHT22;4477;48.736;9.176;2023-01-29T10:26:48;2.30;89.80
8882;DHT22;4477;48.736;9.176;2023-01-29T10:29:24;2.10;88.30
8882;DHT22;4477;48.736;9.176;2023-01-29T10:32:11;1.80;89.40
8882;DHT22;4477;48.736;9.176;2023-01-29T10:34:55;2.00;90.10
8882;DHT22;4477;48.736;9.176;2023-01-29T10:37:35;2.20;90.30
8882;DHT22;4477;48.736;9.176;2023-01-29T10:40:20;2.20;88.90
8882;DHT22;4477;48.736;9.176;2023-01-29T10:42:52;2.30;90.40
8882;DHT22;4477;48.736;9.176;2023-01-29T10:45:33;2.50;87.90
8882;DHT22;4477;48.736;9.176;2023-01-29T10:48:47;2.50;86.40
8882;DHT22;4477;48.736;9.176;2023-01-29T10:51:39;2.50;88.10
8882;DHT22;4477;48.736;9.176;2023-01-29T11:12:45;2.60;85.70
8882;DHT22;4477;48.736;9.176;2023-01-29T11:18:01;2.90;85.60
8882;DHT22;4477;48.736;9.176;2023-01-29T11:20:33;3.00;84.80
8882;DHT22;4477;48.736;9.176;2023-01-29T11:35:55;3.30;81.40
8882;DHT22;4477;48.736;9.176;2023-01-29T11:38:24;3.10;80.40
8882;DHT22;4477;48.736;9.176;2023-01-29T11:43:30;2.80;82.30
8882;DHT22;4477;48.736;9.176;2023-01-29T11:45:59;2.50;84.20
8882;DHT22;4477;48.736;9.176;2023-01-29T11:48:32;2.60;82.10
8882;DHT22;4477;48.736;9.176;2023-01-29T11:51:01;2.60;82.30
8882;DHT22;4477;48.736;9.176;2023-01-29T11:53:35;2.70;82.60
8882;DHT22;4477;48.736;9.176;2023-01-29T11:56:16;2.60;84.60
8882;DHT22;4477;48.736;9.176;2023-01-29T11:58:45;2.20;86.00
8882;DHT22;4477;48.736;9.176;2023-01-29T12:01:15;2.50;83.90
8882;DHT22;4477;48.736;9.176;2023-01-29T12:03:44;2.70;83.80
8882;DHT22;4477;48.736;9.176;2023-01-29T12:06:18;2.80;82.70
8882;DHT22;4477;48.736;9.176;2023-01-29T12:08:53;2.90;82.40
8882;DHT22;4477;48.736;9.176;2023-01-29T12:11:26;3.10;81.60
8882;DHT22;4477;48.736;9.176;2023-01-29T12:13:54;3.10;81.80
8882;DHT22;4477;48.736;9.176;2023-01-29T12:16:25;3.20;83.10
8882;DHT22;4477;48.736;9.176;2023-01-29T12:18:57;3.20;81.60
8882;DHT22;4477;48.736;9.176;2023-01-29T12:21:33;3.20;81.30
8882;DHT22;4477;48.736;9.176;2023-01-29T12:24:05;3.10;81.30
8882;DHT22;4477;48.736;9.176;2023-01-29T12:26:38;3.40;81.30
8882;DHT22;4477;48.736;9.176;2023-01-29T12:29:20;3.40;81.10
8882;DHT22;4477;48.736;9.176;2023-01-29T12:31:54;3.50;80.70
8882;DHT22;4477;48.736;9.176;2023-01-29T12:34:29;3.50;78.50
8882;DHT22;4477;48.736;9.176;2023-01-29T12:37:08;3.50;80.00
8882;DHT22;4477;48.736;9.176;2023-01-29T12:39:36;3.80;77.70
8882;DHT22;4477;48.736;9.176;2023-01-29T12:42:08;3.80;79.20
8882;DHT22;4477;48.736;9.176;2023-01-29T12:44:38;4.30;75.10
8882;DHT22;4477;48.736;9.176;2023-01-29T12:47:14;4.60;75.40
8882;DHT22;4477;48.736;9.176;2023-01-29T12:49:44;4.70;74.20
8882;DHT22;4477;48.736;9.176;2023-01-29T12:52:20;5.00;73.50
8882;DHT22;4477;48.736;9.176;2023-01-29T12:54:52;5.20;73.50
8882;DHT22;4477;48.736;9.176;2023-01-29T12:59:53;5.60;73.60
8882;DHT22;4477;48.736;9.176;2023-01-29T13:02:32;6.00;68.50
8882;DHT22;4477;48.736;9.176;2023-01-29T13:05:04;6.10;71.30
8882;DHT22;4477;48.736;9.176;2023-01-29T13:07:41;6.70;67.90
8882;DHT22;4477;48.736;9.176;2023-01-29T13:10:13;7.00;64.80
8882;DHT22;4477;48.736;9.176;2023-01-29T13:12:50;6.10;66.30
8882;DHT22;4477;48.736;9.176;2023-01-29T13:15:22;5.60;66.90
8882;DHT22;4477;48.736;9.176;2023-01-29T13:17:53;5.80;68.10
8882;DHT22;4477;48.736;9.176;2023-01-29T13:20:23;6.30;65.70
8882;DHT22;4477;48.736;9.176;2023-01-29T13:22:55;6.40;64.70
8882;DHT22;4477;48.736;9.176;2023-01-29T13:25:23;6.20;65.10
8882;DHT22;4477;48.736;9.176;2023-01-29T13:27:50;6.30;64.80
8882;DHT22;4477;48.736;9.176;2023-01-29T13:30:26;6.20;65.60
8882;DHT22;4477;48.736;9.176;2023-01-29T13:32:55;6.50;64.30
8882;DHT22;4477;48.736;9.176;2023-01-29T13:35:34;6.60;65.40
8882;DHT22;4477;48.736;9.176;2023-01-29T13:38:04;6.50;65.40
8882;DHT22;4477;48.736;9.176;2023-01-29T13:40:32;6.40;65.70
8882;DHT22;4477;48.736;9.176;2023-01-29T13:43:00;6.70;64.70
8882;DHT22;4477;48.736;9.176;2023-01-29T13:45:33;6.60;63.10
8882;DHT22;4477;48.736;9.176;2023-01-29T13:48:09;6.10;64.30
8882;DHT22;4477;48.736;9.176;2023-01-29T13:50:39;6.30;63.70
8882;DHT22;4477;48.736;9.176;2023-01-29T13:55:46;6.50;63.60
8882;DHT22;4477;48.736;9.176;2023-01-29T13:58:15;6.60;64.20
8882;DHT22;4477;48.736;9.176;2023-01-29T14:00:51;6.60;63.30
8882;DHT22;4477;48.736;9.176;2023-01-29T14:06:41;7.00;62.50
8882;DHT22;4477;48.736;9.176;2023-01-29T14:12:48;4.60;67.00
8882;DHT22;4477;48.736;9.176;2023-01-29T14:15:29;4.20;69.10
8882;DHT22;4477;48.736;9.176;2023-01-29T14:21:16;3.70;71.60
8882;DHT22;4477;48.736;9.176;2023-01-29T14:23:48;3.50;74.30
8882;DHT22;4477;48.736;9.176;2023-01-29T14:26:22;3.00;74.90
8882;DHT22;4477;48.736;9.176;2023-01-29T14:29:00;2.70;77.30
8882;DHT22;4477;48.736;9.176;2023-01-29T14:31:37;2.40;76.60
8882;DHT22;4477;48.736;9.176;2023-01-29T14:34:12;2.20;78.50
8882;DHT22;4477;48.736;9.176;2023-01-29T14:36:41;2.20;79.50
8882;DHT22;4477;48.736;9.176;2023-01-29T14:39:24;2.20;79.80
8882;DHT22;4477;48.736;9.176;2023-01-29T14:41:54;2.20;80.40
8882;DHT22;4477;48.736;9.176;2023-01-29T14:44:52;2.40;80.20
8882;DHT22;4477;48.736;9.176;2023-01-29T14:47:51;2.40;79.30
8882;DHT22;4477;48.736;9.176;2023-01-29T14:53:26;2.00;80.60
8882;DHT22;4477;48.736;9.176;2023-01-29T14:55:57;1.80;82.10
8882;DHT22;4477;48.736;9.176;2023-01-29T14:58:32;1.50;82.70
8882;DHT22;4477;48.736;9.176;2023-01-29T15:01:04;1.10;84.10
8882;DHT22;4477;48.736;9.176;2023-01-29T15:03:38;0.80;84.70
8882;DHT22;4477;48.736;9.176;2023-01-29T15:06:13;0.70;85.40
8882;DHT22;4477;48.736;9.176;2023-01-29T15:08:46;0.60;87.00
8882;DHT22;4477;48.736;9.176;2023-01-29T15:11:19;0.50;87.10
8882;DHT22;4477;48.736;9.176;2023-01-29T15:19:44;0.50;88.00
8882;DHT22;4477;48.736;9.176;2023-01-29T15:22:13;0.40;87.80
8882;DHT22;4477;48.736;9.176;2023-01-29T15:24:42;0.50;87.90
8882;DHT22;4477;48.736;9.176;2023-01-29T15:27:12;0.50;89.00
8882;DHT22;4477;48.736;9.176;2023-01-29T15:29:41;0.40;89.20
8882;DHT22;4477;48.736;9.176;2023-01-29T15:32:16;0.40;89.90
8882;DHT22;4477;48.736;9.176;2023-01-29T15:34:45;0.30;90.80
8882;DHT22;4477;48.736;9.176;2023-01-29T15:37:26;0.20;90.40
8882;DHT22;4477;48.736;9.176;2023-01-29T15:39:53;0.10;90.90
8882;DHT22;4477;48.736;9.176;2023-01-29T15:42:21;0.00;90.70
8882;DHT22;4477;48.736;9.176;2023-01-29T15:44:50;0.00;91.20
8882;DHT22;4477;48.736;9.176;2023-01-29T15:47:22;-0.10;91.50
8882;DHT22;4477;48.736;9.176;2023-01-29T15:49:50;-0.20;91.10
8882;DHT22;4477;48.736;9.176;2023-01-29T15:52:22;-0.30;91.60
8882;DHT22;4477;48.736;9.176;2023-01-29T15:54:51;-0.40;91.80
8882;DHT22;4477;48.736;9.176;2023-01-29T15:57:21;-0.50;92.10
8882;DHT22;4477;48.736;9.176;2023-01-29T15:59:50;-0.60;92.30
8882;DHT22;4477;48.736;9.176;2023-01-29T16:02:27;-0.70;92.70
8882;DHT22;4477;48.736;9.176;2023-01-29T16:04:54;-0.80;92.90
8882;DHT22;4477;48.736;9.176;2023-01-29T16:07:21;-1.00;93.60
8882;DHT22;4477;48.736;9.176;2023-01-29T16:09:48;-1.20;93.30
8882;DHT22;4477;48.736;9.176;2023-01-29T16:12:16;-1.40;94.30
8882;DHT22;4477;48.736;9.176;2023-01-29T16:14:43;-1.50;95.30
8882;DHT22;4477;48.736;9.176;2023-01-29T16:17:21;-1.60;96.60
8882;DHT22;4477;48.736;9.176;2023-01-29T16:19:56;-1.80;97.20
8882;DHT22;4477;48.736;9.176;2023-01-29T16:22:23;-1.90;98.70
8882;DHT22;4477;48.736;9.176;2023-01-29T16:24:50;-2.00;99.90
8882;DHT22;4477;48.736;9.176;2023-01-29T16:27:18;-2.10;99.90
8882;DHT22;4477;48.736;9.176;2023-01-29T16:29:45;-2.30;99.90
8882;DHT22;4477;48.736;9.176;2023-01-29T16:32:12;-2.60;99.90
8882;DHT22;4477;48.736;9.176;2023-01-29T16:34:41;-2.80;99.90
8882;DHT22;4477;48.736;9.176;2023-01-29T16:37:20;-2.90;99.90
8882;DHT22;4477;48.736;9.176;2023-01-29T16:39:49;-3.10;99.90
8882;DHT22;4477;48.736;9.176;2023-01-29T16:42:22;-3.20;99.90
8882;DHT22;4477;48.736;9.176;2023-01-29T16:44:51;-3.20;99.90
8882;DHT22;4477;48.736;9.176;2023-01-29T16:47:29;-3.40;99.90
8882;DHT22;4477;48.736;9.176;2023-01-29T16:49:57;-3.60;99.90
8882;DHT22;4477;48.736;9.176;2023-01-29T16:52:28;-3.80;99.90
8882;DHT22;4477;48.736;9.176;2023-01-29T16:55:13;-4.00;99.90
8882;DHT22;4477;48.736;9.176;2023-01-29T16:57:41;-4.10;99.90
8882;DHT22;4477;48.736;9.176;2023-01-29T17:00:17;-4.20;99.90
8882;DHT22;4477;48.736;9.176;2023-01-29T17:02:45;-4.30;99.90
8882;DHT22;4477;48.736;9.176;2023-01-29T17:05:20;-4.40;99.90
8882;DHT22;4477;48.736;9.176;2023-01-29T17:07:49;-4.50;99.90
8882;DHT22;4477;48.736;9.176;2023-01-29T17:10:17;-4.60;99.90
8882;DHT22;4477;48.736;9.176;2023-01-29T17:12:50;-4.70;99.90
8882;DHT22;4477;48.736;9.176;2023-01-29T17:15:42;-4.70;99.90
8882;DHT22;4477;48.736;9.176;2023-01-29T17:18:16;-4.60;99.90
8882;DHT22;4477;48.736;9.176;2023-01-29T17:20:42;-4.60;99.90
8882;DHT22;4477;48.736;9.176;2023-01-29T17:23:11;-4.60;99.90
8882;DHT22;4477;48.736;9.176;2023-01-29T17:25:38;-4.60;99.90
8882;DHT22;4477;48.736;9.176;2023-01-29T17:28:05;-4.70;99.90
8882;DHT22;4477;48.736;9.176;2023-01-29T17:30:34;-4.70;99.90
8882;DHT22;4477;48.736;9.176;2023-01-29T17:33:10;-4.70;99.90
8882;DHT22;4477;48.736;9.176;2023-01-29T17:35:37;-4.90;99.90
8882;DHT22;4477;48.736;9.176;2023-01-29T17:38:04;-4.80;99.90
8882;DHT22;4477;48.736;9.176;2023-01-29T17:40:35;-4.80;99.90
8882;DHT22;4477;48.736;9.176;2023-01-29T17:43:03;-4.80;99.90